sensor_id;sensor_type;location;lat;lon;timestamp;P1;durP1;ratioP1;P2;durP2;ratioP2
84500;SDS011;74725;44.210;17.906;2024-03-06T00:01:50;41.13;;;22.85;;
84500;SDS011;74725;44.210;17.906;2024-03-06T00:04:16;50.53;;;24.35;;
84500;SDS011;74725;44.210;17.906;2024-03-06T00:06:42;44.90;;;24.10;;
84500;SDS011;74725;44.210;17.906;2024-03-06T00:09:07;45.78;;;23.95;;
84500;SDS011;74725;44.210;17.906;2024-03-06T00:11:33;43.63;;;24.67;;
84500;SDS011;74725;44.210;17.906;2024-03-06T00:14:02;42.08;;;24.15;;
84500;SDS011;74725;44.210;17.906;2024-03-06T00:16:28;45.58;;;23.35;;
84500;SDS011;74725;44.210;17.906;2024-03-06T00:18:53;38.60;;;22.17;;
84500;SDS011;74725;44.210;17.906;2024-03-06T00:21:19;43.70;;;22.33;;
84500;SDS011;74725;44.210;17.906;2024-03-06T00:23:44;46.75;;;24.30;;
84500;SDS011;74725;44.210;17.906;2024-03-06T00:26:11;38.83;;;23.25;;
84500;SDS011;74725;44.210;17.906;2024-03-06T00:28:38;41.55;;;22.58;;
84500;SDS011;74725;44.210;17.906;2024-03-06T00:31:07;42.67;;;22.67;;
84500;SDS011;74725;44.210;17.906;2024-03-06T00:33:32;42.75;;;23.40;;
84500;SDS011;74725;44.210;17.906;2024-03-06T00:35:58;41.20;;;23.42;;
84500;SDS011;74725;44.210;17.906;2024-03-06T00:38:23;41.22;;;22.25;;
84500;SDS011;74725;44.210;17.906;2024-03-06T00:40:49;43.15;;;22.77;;
84500;SDS011;74725;44.210;17.906;2024-03-06T00:43:14;37.85;;;21.63;;
84500;SDS011;74725;44.210;17.906;2024-03-06T00:45:40;46.72;;;22.85;;
84500;SDS011;74725;44.210;17.906;2024-03-06T00:48:06;36.58;;;21.55;;
84500;SDS011;74725;44.210;17.906;2024-03-06T00:50:31;38.53;;;21.05;;
84500;SDS011;74725;44.210;17.906;2024-03-06T00:52:57;43.67;;;21.75;;
84500;SDS011;74725;44.210;17.906;2024-03-06T00:55:23;38.65;;;21.60;;
84500;SDS011;74725;44.210;17.906;2024-03-06T00:57:49;36.33;;;20.55;;
84500;SDS011;74725;44.210;17.906;2024-03-06T01:00:14;38.63;;;19.73;;
84500;SDS011;74725;44.210;17.906;2024-03-06T01:02:41;36.30;;;19.77;;
84500;SDS011;74725;44.210;17.906;2024-03-06T01:05:07;36.75;;;20.25;;
84500;SDS011;74725;44.210;17.906;2024-03-06T01:07:34;38.72;;;20.38;;
84500;SDS011;74725;44.210;17.906;2024-03-06T01:10:02;35.47;;;19.80;;
84500;SDS011;74725;44.210;17.906;2024-03-06T01:12:28;34.60;;;19.30;;
84500;SDS011;74725;44.210;17.906;2024-03-06T01:14:54;39.10;;;19.63;;
84500;SDS011;74725;44.210;17.906;2024-03-06T01:17:20;32.63;;;19.08;;
84500;SDS011;74725;44.210;17.906;2024-03-06T01:19:45;34.80;;;19.83;;
84500;SDS011;74725;44.210;17.906;2024-03-06T01:22:11;31.75;;;18.55;;
84500;SDS011;74725;44.210;17.906;2024-03-06T01:24:40;38.22;;;19.10;;
84500;SDS011;74725;44.210;17.906;2024-03-06T01:27:06;33.63;;;18.52;;
84500;SDS011;74725;44.210;17.906;2024-03-06T01:29:32;34.47;;;17.75;;
84500;SDS011;74725;44.210;17.906;2024-03-06T01:31:57;34.33;;;17.33;;
84500;SDS011;74725;44.210;17.906;2024-03-06T01:34:24;34.35;;;17.50;;
84500;SDS011;74725;44.210;17.906;2024-03-06T01:36:53;41.30;;;19.10;;
84500;SDS011;74725;44.210;17.906;2024-03-06T01:39:19;31.15;;;17.95;;
84500;SDS011;74725;44.210;17.906;2024-03-06T01:41:48;31.92;;;18.05;;
84500;SDS011;74725;44.210;17.906;2024-03-06T01:44:14;38.28;;;19.17;;
84500;SDS011;74725;44.210;17.906;2024-03-06T01:46:41;35.63;;;19.10;;
84500;SDS011;74725;44.210;17.906;2024-03-06T01:49:08;35.53;;;18.50;;
84500;SDS011;74725;44.210;17.906;2024-03-06T01:51:34;35.40;;;17.83;;
84500;SDS011;74725;44.210;17.906;2024-03-06T01:54:01;29.75;;;17.67;;
84500;SDS011;74725;44.210;17.906;2024-03-06T01:56:29;37.75;;;18.77;;
84500;SDS011;74725;44.210;17.906;2024-03-06T01:58:58;37.38;;;20.85;;
84500;SDS011;74725;44.210;17.906;2024-03-06T02:01:24;44.08;;;24.02;;
84500;SDS011;74725;44.210;17.906;2024-03-06T02:03:51;33.05;;;16.58;;
84500;SDS011;74725;44.210;17.906;2024-03-06T02:06:17;28.83;;;15.82;;
84500;SDS011;74725;44.210;17.906;2024-03-06T02:08:47;30.33;;;16.08;;
84500;SDS011;74725;44.210;17.906;2024-03-06T02:11:13;31.73;;;15.55;;
84500;SDS011;74725;44.210;17.906;2024-03-06T02:13:40;35.45;;;16.23;;
84500;SDS011;74725;44.210;17.906;2024-03-06T02:16:07;33.85;;;17.45;;
84500;SDS011;74725;44.210;17.906;2024-03-06T02:18:32;37.42;;;17.25;;
84500;SDS011;74725;44.210;17.906;2024-03-06T02:20:58;31.73;;;16.75;;
84500;SDS011;74725;44.210;17.906;2024-03-06T02:23:24;38.17;;;18.17;;
84500;SDS011;74725;44.210;17.906;2024-03-06T02:25:49;36.28;;;18.42;;
84500;SDS011;74725;44.210;17.906;2024-03-06T02:28:15;35.75;;;18.58;;
84500;SDS011;74725;44.210;17.906;2024-03-06T02:30:42;33.95;;;19.33;;
84500;SDS011;74725;44.210;17.906;2024-03-06T02:33:08;33.90;;;19.77;;
84500;SDS011;74725;44.210;17.906;2024-03-06T02:35:34;35.50;;;18.48;;
84500;SDS011;74725;44.210;17.906;2024-03-06T02:38:01;35.17;;;18.83;;
84500;SDS011;74725;44.210;17.906;2024-03-06T02:40:31;36.03;;;18.85;;
84500;SDS011;74725;44.210;17.906;2024-03-06T02:42:58;39.38;;;19.55;;
84500;SDS011;74725;44.210;17.906;2024-03-06T02:45:23;41.17;;;19.23;;
84500;SDS011;74725;44.210;17.906;2024-03-06T02:47:49;33.40;;;18.48;;
84500;SDS011;74725;44.210;17.906;2024-03-06T02:50:15;31.83;;;19.00;;
84500;SDS011;74725;44.210;17.906;2024-03-06T02:52:40;33.08;;;18.25;;
84500;SDS011;74725;44.210;17.906;2024-03-06T02:55:06;31.08;;;17.50;;
84500;SDS011;74725;44.210;17.906;2024-03-06T02:57:32;28.50;;;15.95;;
84500;SDS011;74725;44.210;17.906;2024-03-06T02:59:58;34.03;;;16.10;;
84500;SDS011;74725;44.210;17.906;2024-03-06T03:02:24;30.50;;;15.75;;
84500;SDS011;74725;44.210;17.906;2024-03-06T03:04:50;32.35;;;15.65;;
84500;SDS011;74725;44.210;17.906;2024-03-06T03:07:17;28.13;;;14.70;;
84500;SDS011;74725;44.210;17.906;2024-03-06T03:09:45;28.05;;;15.23;;
84500;SDS011;74725;44.210;17.906;2024-03-06T03:12:10;26.77;;;15.85;;
84500;SDS011;74725;44.210;17.906;2024-03-06T03:14:37;29.77;;;16.50;;
84500;SDS011;74725;44.210;17.906;2024-03-06T03:17:04;30.77;;;15.75;;
84500;SDS011;74725;44.210;17.906;2024-03-06T03:19:30;24.40;;;14.50;;
84500;SDS011;74725;44.210;17.906;2024-03-06T03:21:56;29.42;;;16.02;;
84500;SDS011;74725;44.210;17.906;2024-03-06T03:24:23;32.95;;;16.95;;
84500;SDS011;74725;44.210;17.906;2024-03-06T03:26:53;27.42;;;16.15;;
84500;SDS011;74725;44.210;17.906;2024-03-06T03:29:19;28.10;;;15.73;;
84500;SDS011;74725;44.210;17.906;2024-03-06T03:31:46;29.52;;;15.68;;
84500;SDS011;74725;44.210;17.906;2024-03-06T03:34:11;29.60;;;15.40;;
84500;SDS011;74725;44.210;17.906;2024-03-06T03:36:43;30.85;;;15.57;;
84500;SDS011;74725;44.210;17.906;2024-03-06T03:39:11;29.88;;;15.43;;
84500;SDS011;74725;44.210;17.906;2024-03-06T03:41:46;34.03;;;15.93;;
84500;SDS011;74725;44.210;17.906;2024-03-06T03:44:16;33.05;;;17.05;;
84500;SDS011;74725;44.210;17.906;2024-03-06T03:46:46;30.27;;;15.90;;
84500;SDS011;74725;44.210;17.906;2024-03-06T03:49:11;29.98;;;15.98;;
84500;SDS011;74725;44.210;17.906;2024-03-06T03:51:38;29.95;;;17.15;;
84500;SDS011;74725;44.210;17.906;2024-03-06T03:54:04;34.47;;;17.65;;
84500;SDS011;74725;44.210;17.906;2024-03-06T03:56:30;32.42;;;17.83;;
84500;SDS011;74725;44.210;17.906;2024-03-06T03:58:57;35.30;;;16.75;;
84500;SDS011;74725;44.210;17.906;2024-03-06T04:01:25;32.00;;;17.20;;
84500;SDS011;74725;44.210;17.906;2024-03-06T04:03:51;32.25;;;16.75;;
84500;SDS011;74725;44.210;17.906;2024-03-06T04:06:17;28.80;;;15.85;;
84500;SDS011;74725;44.210;17.906;2024-03-06T04:08:42;33.15;;;16.48;;
84500;SDS011;74725;44.210;17.906;2024-03-06T04:11:08;28.00;;;17.05;;
84500;SDS011;74725;44.210;17.906;2024-03-06T04:13:37;27.90;;;16.35;;
84500;SDS011;74725;44.210;17.906;2024-03-06T04:16:04;35.33;;;16.58;;
84500;SDS011;74725;44.210;17.906;2024-03-06T04:18:32;36.73;;;17.87;;
84500;SDS011;74725;44.210;17.906;2024-03-06T04:21:04;35.35;;;18.75;;
84500;SDS011;74725;44.210;17.906;2024-03-06T04:23:31;32.97;;;18.30;;
84500;SDS011;74725;44.210;17.906;2024-03-06T04:25:58;32.50;;;18.27;;
84500;SDS011;74725;44.210;17.906;2024-03-06T04:28:24;33.28;;;18.67;;
84500;SDS011;74725;44.210;17.906;2024-03-06T04:30:49;34.50;;;18.77;;
84500;SDS011;74725;44.210;17.906;2024-03-06T04:33:15;32.05;;;19.17;;
84500;SDS011;74725;44.210;17.906;2024-03-06T04:35:41;36.55;;;19.95;;
84500;SDS011;74725;44.210;17.906;2024-03-06T04:38:06;36.53;;;20.40;;
84500;SDS011;74725;44.210;17.906;2024-03-06T04:40:33;38.55;;;21.35;;
84500;SDS011;74725;44.210;17.906;2024-03-06T04:42:59;35.55;;;20.52;;
84500;SDS011;74725;44.210;17.906;2024-03-06T04:45:25;39.50;;;21.67;;
84500;SDS011;74725;44.210;17.906;2024-03-06T04:47:51;35.45;;;21.42;;
84500;SDS011;74725;44.210;17.906;2024-03-06T04:50:17;40.55;;;21.98;;
84500;SDS011;74725;44.210;17.906;2024-03-06T04:52:43;34.05;;;22.52;;
84500;SDS011;74725;44.210;17.906;2024-03-06T04:55:10;36.85;;;21.38;;
84500;SDS011;74725;44.210;17.906;2024-03-06T04:57:37;40.08;;;21.60;;
84500;SDS011;74725;44.210;17.906;2024-03-06T05:00:03;35.97;;;21.77;;
84500;SDS011;74725;44.210;17.906;2024-03-06T05:02:35;36.47;;;20.55;;
84500;SDS011;74725;44.210;17.906;2024-03-06T05:05:02;32.47;;;19.45;;
84500;SDS011;74725;44.210;17.906;2024-03-06T05:07:29;33.13;;;18.35;;
84500;SDS011;74725;44.210;17.906;2024-03-06T05:09:55;32.33;;;18.52;;
84500;SDS011;74725;44.210;17.906;2024-03-06T05:12:24;37.95;;;19.92;;
84500;SDS011;74725;44.210;17.906;2024-03-06T05:14:53;35.95;;;19.77;;
84500;SDS011;74725;44.210;17.906;2024-03-06T05:17:20;32.22;;;19.15;;
84500;SDS011;74725;44.210;17.906;2024-03-06T05:19:47;32.58;;;17.45;;
84500;SDS011;74725;44.210;17.906;2024-03-06T05:22:14;32.38;;;17.63;;
84500;SDS011;74725;44.210;17.906;2024-03-06T05:24:41;35.08;;;18.00;;
84500;SDS011;74725;44.210;17.906;2024-03-06T05:27:07;33.55;;;18.05;;
84500;SDS011;74725;44.210;17.906;2024-03-06T05:29:35;34.20;;;18.15;;
84500;SDS011;74725;44.210;17.906;2024-03-06T05:32:01;33.90;;;17.73;;
84500;SDS011;74725;44.210;17.906;2024-03-06T05:34:28;38.42;;;18.70;;
84500;SDS011;74725;44.210;17.906;2024-03-06T05:36:55;39.55;;;19.40;;
84500;SDS011;74725;44.210;17.906;2024-03-06T05:39:21;37.05;;;18.95;;
84500;SDS011;74725;44.210;17.906;2024-03-06T05:41:46;39.97;;;21.80;;
84500;SDS011;74725;44.210;17.906;2024-03-06T05:44:12;40.05;;;21.23;;
84500;SDS011;74725;44.210;17.906;2024-03-06T05:46:37;38.22;;;20.92;;
84500;SDS011;74725;44.210;17.906;2024-03-06T05:49:03;41.08;;;20.35;;
84500;SDS011;74725;44.210;17.906;2024-03-06T05:51:29;42.65;;;21.83;;
84500;SDS011;74725;44.210;17.906;2024-03-06T05:53:55;41.00;;;21.50;;
84500;SDS011;74725;44.210;17.906;2024-03-06T05:56:22;44.50;;;22.33;;
84500;SDS011;74725;44.210;17.906;2024-03-06T05:58:47;42.25;;;21.80;;
84500;SDS011;74725;44.210;17.906;2024-03-06T06:01:17;41.85;;;22.33;;
84500;SDS011;74725;44.210;17.906;2024-03-06T06:03:47;39.88;;;22.98;;
84500;SDS011;74725;44.210;17.906;2024-03-06T06:06:16;43.28;;;23.67;;
84500;SDS011;74725;44.210;17.906;2024-03-06T06:08:44;36.47;;;22.80;;
84500;SDS011;74725;44.210;17.906;2024-03-06T06:11:10;44.60;;;23.08;;
84500;SDS011;74725;44.210;17.906;2024-03-06T06:13:36;41.08;;;24.23;;
84500;SDS011;74725;44.210;17.906;2024-03-06T06:16:02;41.10;;;23.30;;
84500;SDS011;74725;44.210;17.906;2024-03-06T06:18:28;38.97;;;22.40;;
84500;SDS011;74725;44.210;17.906;2024-03-06T06:20:54;46.85;;;23.80;;
84500;SDS011;74725;44.210;17.906;2024-03-06T06:23:20;39.42;;;22.80;;
84500;SDS011;74725;44.210;17.906;2024-03-06T06:25:45;34.53;;;21.88;;
84500;SDS011;74725;44.210;17.906;2024-03-06T06:28:11;38.80;;;22.50;;
84500;SDS011;74725;44.210;17.906;2024-03-06T06:30:37;39.53;;;21.02;;
84500;SDS011;74725;44.210;17.906;2024-03-06T06:33:04;38.38;;;21.80;;
84500;SDS011;74725;44.210;17.906;2024-03-06T06:35:32;36.95;;;23.17;;
84500;SDS011;74725;44.210;17.906;2024-03-06T06:37:59;39.50;;;23.20;;
84500;SDS011;74725;44.210;17.906;2024-03-06T06:40:25;43.22;;;22.77;;
84500;SDS011;74725;44.210;17.906;2024-03-06T06:42:53;37.38;;;23.35;;
84500;SDS011;74725;44.210;17.906;2024-03-06T06:45:19;43.70;;;24.77;;
84500;SDS011;74725;44.210;17.906;2024-03-06T06:47:47;41.13;;;25.27;;
84500;SDS011;74725;44.210;17.906;2024-03-06T06:50:14;42.97;;;25.17;;
84500;SDS011;74725;44.210;17.906;2024-03-06T06:52:40;39.10;;;24.23;;
84500;SDS011;74725;44.210;17.906;2024-03-06T06:55:06;41.03;;;23.67;;
84500;SDS011;74725;44.210;17.906;2024-03-06T06:57:34;37.45;;;25.50;;
84500;SDS011;74725;44.210;17.906;2024-03-06T07:00:00;43.60;;;25.00;;
84500;SDS011;74725;44.210;17.906;2024-03-06T07:02:31;40.05;;;23.60;;
84500;SDS011;74725;44.210;17.906;2024-03-06T07:04:57;40.88;;;23.08;;
84500;SDS011;74725;44.210;17.906;2024-03-06T07:07:23;42.45;;;24.17;;
84500;SDS011;74725;44.210;17.906;2024-03-06T07:09:48;42.97;;;23.88;;
84500;SDS011;74725;44.210;17.906;2024-03-06T07:12:15;36.97;;;23.30;;
84500;SDS011;74725;44.210;17.906;2024-03-06T07:14:42;42.80;;;23.58;;
84500;SDS011;74725;44.210;17.906;2024-03-06T07:17:08;37.08;;;22.02;;
84500;SDS011;74725;44.210;17.906;2024-03-06T07:19:34;43.72;;;25.65;;
84500;SDS011;74725;44.210;17.906;2024-03-06T07:22:00;39.42;;;23.40;;
84500;SDS011;74725;44.210;17.906;2024-03-06T07:24:25;41.85;;;22.27;;
84500;SDS011;74725;44.210;17.906;2024-03-06T07:26:51;39.95;;;24.63;;
84500;SDS011;74725;44.210;17.906;2024-03-06T07:29:16;43.38;;;25.30;;
84500;SDS011;74725;44.210;17.906;2024-03-06T07:31:42;42.75;;;24.70;;
84500;SDS011;74725;44.210;17.906;2024-03-06T07:34:10;42.67;;;25.15;;
84500;SDS011;74725;44.210;17.906;2024-03-06T07:36:37;44.55;;;27.00;;
84500;SDS011;74725;44.210;17.906;2024-03-06T07:39:02;44.50;;;24.23;;
84500;SDS011;74725;44.210;17.906;2024-03-06T07:41:29;43.97;;;24.15;;
84500;SDS011;74725;44.210;17.906;2024-03-06T07:43:58;40.78;;;25.05;;
84500;SDS011;74725;44.210;17.906;2024-03-06T07:46:25;40.47;;;23.58;;
84500;SDS011;74725;44.210;17.906;2024-03-06T07:48:50;37.17;;;23.55;;
84500;SDS011;74725;44.210;17.906;2024-03-06T07:51:17;39.17;;;23.17;;
84500;SDS011;74725;44.210;17.906;2024-03-06T07:53:43;41.92;;;24.85;;
84500;SDS011;74725;44.210;17.906;2024-03-06T07:56:11;40.83;;;23.88;;
84500;SDS011;74725;44.210;17.906;2024-03-06T08:01:13;38.88;;;22.20;;
84500;SDS011;74725;44.210;17.906;2024-03-06T08:03:40;36.67;;;22.05;;
84500;SDS011;74725;44.210;17.906;2024-03-06T08:06:09;37.08;;;20.88;;
84500;SDS011;74725;44.210;17.906;2024-03-06T08:08:35;34.72;;;19.30;;
84500;SDS011;74725;44.210;17.906;2024-03-06T08:11:01;34.47;;;21.15;;
84500;SDS011;74725;44.210;17.906;2024-03-06T08:13:27;37.38;;;22.70;;
84500;SDS011;74725;44.210;17.906;2024-03-06T08:15:53;39.15;;;21.45;;
84500;SDS011;74725;44.210;17.906;2024-03-06T08:18:19;35.40;;;21.85;;
84500;SDS011;74725;44.210;17.906;2024-03-06T08:20:44;34.15;;;20.73;;
84500;SDS011;74725;44.210;17.906;2024-03-06T08:23:10;34.50;;;21.23;;
84500;SDS011;74725;44.210;17.906;2024-03-06T08:25:35;34.40;;;21.33;;
84500;SDS011;74725;44.210;17.906;2024-03-06T08:28:01;39.10;;;21.98;;
84500;SDS011;74725;44.210;17.906;2024-03-06T08:30:31;38.73;;;22.63;;
84500;SDS011;74725;44.210;17.906;2024-03-06T08:32:57;42.08;;;23.00;;
84500;SDS011;74725;44.210;17.906;2024-03-06T08:35:23;36.70;;;22.40;;
84500;SDS011;74725;44.210;17.906;2024-03-06T08:37:49;40.88;;;22.92;;
84500;SDS011;74725;44.210;17.906;2024-03-06T08:40:18;46.40;;;25.30;;
84500;SDS011;74725;44.210;17.906;2024-03-06T08:42:44;51.65;;;25.67;;
84500;SDS011;74725;44.210;17.906;2024-03-06T08:45:12;44.40;;;24.27;;
84500;SDS011;74725;44.210;17.906;2024-03-06T08:47:39;36.65;;;22.48;;
84500;SDS011;74725;44.210;17.906;2024-03-06T08:50:05;40.40;;;23.98;;
84500;SDS011;74725;44.210;17.906;2024-03-06T08:52:32;39.35;;;23.08;;
84500;SDS011;74725;44.210;17.906;2024-03-06T08:55:02;38.92;;;22.73;;
84500;SDS011;74725;44.210;17.906;2024-03-06T08:57:37;46.72;;;23.38;;
84500;SDS011;74725;44.210;17.906;2024-03-06T09:00:04;32.35;;;20.33;;
84500;SDS011;74725;44.210;17.906;2024-03-06T09:02:39;35.95;;;21.30;;
84500;SDS011;74725;44.210;17.906;2024-03-06T09:05:06;35.22;;;20.48;;
84500;SDS011;74725;44.210;17.906;2024-03-06T09:07:32;39.38;;;20.63;;
84500;SDS011;74725;44.210;17.906;2024-03-06T09:10:03;36.22;;;18.88;;
84500;SDS011;74725;44.210;17.906;2024-03-06T09:12:30;38.15;;;19.55;;
84500;SDS011;74725;44.210;17.906;2024-03-06T09:14:56;32.35;;;19.25;;
84500;SDS011;74725;44.210;17.906;2024-03-06T09:17:22;28.90;;;19.00;;
84500;SDS011;74725;44.210;17.906;2024-03-06T09:19:48;35.25;;;19.70;;
84500;SDS011;74725;44.210;17.906;2024-03-06T09:22:13;32.40;;;20.17;;
84500;SDS011;74725;44.210;17.906;2024-03-06T09:24:40;35.15;;;20.27;;
84500;SDS011;74725;44.210;17.906;2024-03-06T09:27:05;32.53;;;18.95;;
84500;SDS011;74725;44.210;17.906;2024-03-06T09:29:31;31.92;;;18.00;;
84500;SDS011;74725;44.210;17.906;2024-03-06T09:31:56;32.30;;;19.33;;
84500;SDS011;74725;44.210;17.906;2024-03-06T09:34:23;32.92;;;19.65;;
84500;SDS011;74725;44.210;17.906;2024-03-06T09:36:49;29.85;;;17.83;;
84500;SDS011;74725;44.210;17.906;2024-03-06T09:39:15;27.88;;;18.08;;
84500;SDS011;74725;44.210;17.906;2024-03-06T09:41:43;28.80;;;18.13;;
84500;SDS011;74725;44.210;17.906;2024-03-06T09:44:12;29.92;;;17.17;;
84500;SDS011;74725;44.210;17.906;2024-03-06T09:46:41;26.73;;;17.48;;
84500;SDS011;74725;44.210;17.906;2024-03-06T09:49:10;27.67;;;19.00;;
84500;SDS011;74725;44.210;17.906;2024-03-06T09:51:37;30.33;;;18.35;;
84500;SDS011;74725;44.210;17.906;2024-03-06T09:54:05;32.55;;;18.50;;
84500;SDS011;74725;44.210;17.906;2024-03-06T09:56:33;35.47;;;20.50;;
84500;SDS011;74725;44.210;17.906;2024-03-06T09:58:59;29.73;;;19.23;;
84500;SDS011;74725;44.210;17.906;2024-03-06T10:01:24;31.65;;;19.90;;
84500;SDS011;74725;44.210;17.906;2024-03-06T10:03:53;34.53;;;18.63;;
84500;SDS011;74725;44.210;17.906;2024-03-06T10:06:18;30.27;;;18.45;;
84500;SDS011;74725;44.210;17.906;2024-03-06T10:08:45;27.08;;;16.73;;
84500;SDS011;74725;44.210;17.906;2024-03-06T10:11:12;30.70;;;18.50;;
84500;SDS011;74725;44.210;17.906;2024-03-06T10:13:38;26.10;;;18.30;;
84500;SDS011;74725;44.210;17.906;2024-03-06T10:16:04;22.15;;;15.27;;
84500;SDS011;74725;44.210;17.906;2024-03-06T10:18:35;21.98;;;14.95;;
84500;SDS011;74725;44.210;17.906;2024-03-06T10:21:01;27.70;;;15.98;;
84500;SDS011;74725;44.210;17.906;2024-03-06T10:23:27;22.70;;;15.88;;
84500;SDS011;74725;44.210;17.906;2024-03-06T10:25:56;20.83;;;14.73;;
84500;SDS011;74725;44.210;17.906;2024-03-06T10:28:23;26.30;;;15.52;;
84500;SDS011;74725;44.210;17.906;2024-03-06T10:30:49;30.38;;;15.95;;
84500;SDS011;74725;44.210;17.906;2024-03-06T10:33:17;25.67;;;15.90;;
84500;SDS011;74725;44.210;17.906;2024-03-06T10:35:46;25.02;;;15.48;;
84500;SDS011;74725;44.210;17.906;2024-03-06T10:38:13;22.55;;;15.48;;
84500;SDS011;74725;44.210;17.906;2024-03-06T10:40:40;26.42;;;16.17;;
84500;SDS011;74725;44.210;17.906;2024-03-06T10:43:07;26.73;;;16.17;;
84500;SDS011;74725;44.210;17.906;2024-03-06T10:45:39;26.63;;;16.20;;
84500;SDS011;74725;44.210;17.906;2024-03-06T10:48:24;25.73;;;14.98;;
84500;SDS011;74725;44.210;17.906;2024-03-06T10:50:53;24.20;;;15.25;;
84500;SDS011;74725;44.210;17.906;2024-03-06T10:53:20;22.95;;;15.65;;
84500;SDS011;74725;44.210;17.906;2024-03-06T10:55:46;28.17;;;17.27;;
84500;SDS011;74725;44.210;17.906;2024-03-06T10:58:14;25.80;;;15.63;;
84500;SDS011;74725;44.210;17.906;2024-03-06T11:00:41;26.80;;;16.25;;
84500;SDS011;74725;44.210;17.906;2024-03-06T11:03:11;29.75;;;16.45;;
84500;SDS011;74725;44.210;17.906;2024-03-06T11:05:46;22.58;;;14.77;;
84500;SDS011;74725;44.210;17.906;2024-03-06T11:08:16;23.63;;;16.40;;
84500;SDS011;74725;44.210;17.906;2024-03-06T11:10:42;25.90;;;14.90;;
84500;SDS011;74725;44.210;17.906;2024-03-06T11:13:30;23.70;;;14.40;;
84500;SDS011;74725;44.210;17.906;2024-03-06T11:15:58;30.73;;;15.82;;
84500;SDS011;74725;44.210;17.906;2024-03-06T11:20:58;23.70;;;14.40;;
84500;SDS011;74725;44.210;17.906;2024-03-06T11:23:25;21.60;;;14.13;;
84500;SDS011;74725;44.210;17.906;2024-03-06T11:28:16;29.83;;;14.20;;
84500;SDS011;74725;44.210;17.906;2024-03-06T11:31:02;22.20;;;10.10;;
84500;SDS011;74725;44.210;17.906;2024-03-06T11:33:39;17.55;;;11.18;;
84500;SDS011;74725;44.210;17.906;2024-03-06T11:36:22;21.98;;;10.60;;
84500;SDS011;74725;44.210;17.906;2024-03-06T11:44:16;20.77;;;11.35;;
84500;SDS011;74725;44.210;17.906;2024-03-06T11:46:50;16.40;;;10.57;;
84500;SDS011;74725;44.210;17.906;2024-03-06T11:49:27;20.60;;;10.52;;
84500;SDS011;74725;44.210;17.906;2024-03-06T11:52:05;23.50;;;11.43;;
84500;SDS011;74725;44.210;17.906;2024-03-06T11:54:34;17.77;;;8.20;;
84500;SDS011;74725;44.210;17.906;2024-03-06T11:57:00;16.15;;;9.32;;
84500;SDS011;74725;44.210;17.906;2024-03-06T11:59:31;16.10;;;7.70;;
84500;SDS011;74725;44.210;17.906;2024-03-06T12:04:50;20.33;;;14.23;;
84500;SDS011;74725;44.210;17.906;2024-03-06T12:07:16;16.13;;;8.25;;
84500;SDS011;74725;44.210;17.906;2024-03-06T12:09:42;17.52;;;9.25;;
84500;SDS011;74725;44.210;17.906;2024-03-06T12:12:08;20.77;;;9.20;;
84500;SDS011;74725;44.210;17.906;2024-03-06T12:14:36;18.20;;;8.98;;
84500;SDS011;74725;44.210;17.906;2024-03-06T12:17:04;18.35;;;9.65;;
84500;SDS011;74725;44.210;17.906;2024-03-06T12:19:33;18.27;;;10.70;;
84500;SDS011;74725;44.210;17.906;2024-03-06T12:22:01;17.50;;;9.52;;
84500;SDS011;74725;44.210;17.906;2024-03-06T12:24:40;25.38;;;12.13;;
84500;SDS011;74725;44.210;17.906;2024-03-06T12:27:21;24.02;;;11.82;;
84500;SDS011;74725;44.210;17.906;2024-03-06T12:29:48;21.15;;;11.38;;
84500;SDS011;74725;44.210;17.906;2024-03-06T12:32:19;24.17;;;12.52;;
84500;SDS011;74725;44.210;17.906;2024-03-06T12:34:55;29.15;;;12.88;;
84500;SDS011;74725;44.210;17.906;2024-03-06T12:37:31;22.15;;;14.02;;
84500;SDS011;74725;44.210;17.906;2024-03-06T12:40:00;24.52;;;13.15;;
84500;SDS011;74725;44.210;17.906;2024-03-06T12:42:26;24.48;;;13.57;;
84500;SDS011;74725;44.210;17.906;2024-03-06T12:44:53;26.73;;;15.95;;
84500;SDS011;74725;44.210;17.906;2024-03-06T12:47:19;23.30;;;13.27;;
84500;SDS011;74725;44.210;17.906;2024-03-06T12:49:45;24.80;;;13.70;;
84500;SDS011;74725;44.210;17.906;2024-03-06T12:52:14;22.48;;;14.27;;
84500;SDS011;74725;44.210;17.906;2024-03-06T12:54:54;23.77;;;14.18;;
84500;SDS011;74725;44.210;17.906;2024-03-06T12:57:23;25.13;;;16.52;;
84500;SDS011;74725;44.210;17.906;2024-03-06T12:59:54;26.35;;;15.98;;
84500;SDS011;74725;44.210;17.906;2024-03-06T13:02:27;27.75;;;16.95;;
84500;SDS011;74725;44.210;17.906;2024-03-06T13:05:06;31.70;;;18.05;;
84500;SDS011;74725;44.210;17.906;2024-03-06T13:07:34;27.42;;;16.70;;
84500;SDS011;74725;44.210;17.906;2024-03-06T13:10:05;24.92;;;15.80;;
84500;SDS011;74725;44.210;17.906;2024-03-06T13:12:34;25.67;;;14.93;;
84500;SDS011;74725;44.210;17.906;2024-03-06T13:15:01;24.23;;;14.23;;
84500;SDS011;74725;44.210;17.906;2024-03-06T13:17:28;33.80;;;11.48;;
84500;SDS011;74725;44.210;17.906;2024-03-06T13:19:55;30.38;;;11.10;;
84500;SDS011;74725;44.210;17.906;2024-03-06T13:22:21;27.52;;;9.65;;
84500;SDS011;74725;44.210;17.906;2024-03-06T13:24:50;25.13;;;9.32;;
84500;SDS011;74725;44.210;17.906;2024-03-06T13:27:16;17.80;;;9.38;;
84500;SDS011;74725;44.210;17.906;2024-03-06T13:29:42;17.58;;;8.43;;
84500;SDS011;74725;44.210;17.906;2024-03-06T13:32:08;24.95;;;9.70;;
84500;SDS011;74725;44.210;17.906;2024-03-06T13:34:34;29.52;;;9.10;;
84500;SDS011;74725;44.210;17.906;2024-03-06T13:36:59;14.80;;;8.38;;
84500;SDS011;74725;44.210;17.906;2024-03-06T13:39:25;17.23;;;8.73;;
84500;SDS011;74725;44.210;17.906;2024-03-06T13:41:51;20.83;;;8.98;;
84500;SDS011;74725;44.210;17.906;2024-03-06T13:44:20;16.85;;;8.88;;
84500;SDS011;74725;44.210;17.906;2024-03-06T13:46:47;21.50;;;8.00;;
84500;SDS011;74725;44.210;17.906;2024-03-06T13:49:39;13.77;;;8.82;;
84500;SDS011;74725;44.210;17.906;2024-03-06T13:52:06;21.15;;;9.77;;
84500;SDS011;74725;44.210;17.906;2024-03-06T13:54:38;18.73;;;7.95;;
84500;SDS011;74725;44.210;17.906;2024-03-06T13:59:32;22.77;;;8.90;;
84500;SDS011;74725;44.210;17.906;2024-03-06T14:01:59;19.75;;;8.25;;
84500;SDS011;74725;44.210;17.906;2024-03-06T14:04:25;18.52;;;8.60;;
84500;SDS011;74725;44.210;17.906;2024-03-06T14:07:05;14.05;;;8.30;;
84500;SDS011;74725;44.210;17.906;2024-03-06T14:09:32;15.43;;;8.20;;
84500;SDS011;74725;44.210;17.906;2024-03-06T14:11:58;20.70;;;8.13;;
84500;SDS011;74725;44.210;17.906;2024-03-06T14:14:24;17.42;;;8.23;;
84500;SDS011;74725;44.210;17.906;2024-03-06T14:16:50;12.82;;;7.63;;
84500;SDS011;74725;44.210;17.906;2024-03-06T14:19:15;17.65;;;8.65;;
84500;SDS011;74725;44.210;17.906;2024-03-06T14:21:41;12.75;;;6.82;;
84500;SDS011;74725;44.210;17.906;2024-03-06T14:24:06;10.82;;;7.15;;
84500;SDS011;74725;44.210;17.906;2024-03-06T14:26:32;13.77;;;7.22;;
84500;SDS011;74725;44.210;17.906;2024-03-06T14:28:59;14.25;;;7.05;;
84500;SDS011;74725;44.210;17.906;2024-03-06T14:31:25;13.93;;;8.48;;